WetterOnline ( https://www.wetteronline.de )

Wetter aktuell Siegen

Aktuelles Wetter: Bad Marienberg (555m)

6-stündlich | Neueste Meldungen
Ortszeit Temperatur Wetter
Fr, 19.08. 20:00 21.4° C leicht bewölkt
Fr, 19.08. 14:00 23.0° C wolkig
Fr, 19.08. 8:00 15.8° C wolkig
Fr, 19.08. 2:00 16.0° C bewölkt
Do, 18.08. 20:00 20.2° C wolkig
Do, 18.08. 14:00 18.0° C bedeckt
Do, 18.08. 8:00 16.4° C bedeckt
Do, 18.08. 2:00 17.7° C bewölkt
Ortszeit Temperatur Wetter
Fr, 19.08. 20:00 21.4° C leicht bewölkt
Fr, 19.08. 19:50 21.4° C wolkig
Fr, 19.08. 19:40 21.8° C bedeckt
Fr, 19.08. 19:30 22.4° C wolkig
Fr, 19.08. 19:20 22.4° C wolkig
Fr, 19.08. 19:10 22.5° C bewölkt
Fr, 19.08. 19:00 22.8° C leicht bewölkt
Fr, 19.08. 18:30 23.8° C wolkig
Fr, 19.08. 18:00 23.8° C leicht bewölkt
Fr, 19.08. 17:30 24.2° C leicht bewölkt
Fr, 19.08. 17:00 24.2° C leicht bewölkt
Ortszeit Relative Feuchte Sichtweite
Fr, 19.08. 20:00 56% 45 km
Fr, 19.08. 14:00 55% 45 km
Fr, 19.08. 8:00 93% 10 km
Fr, 19.08. 2:00 87% 12 km
Do, 18.08. 20:00 68% 27 km
Do, 18.08. 14:00 83% 10 km
Do, 18.08. 8:00 93% 6 km
Do, 18.08. 2:00 83% 15 km
Ortszeit Relative Feuchte Sichtweite
Fr, 19.08. 20:00 56% 45 km
Fr, 19.08. 19:50 56% -
Fr, 19.08. 19:40 55% -
Fr, 19.08. 19:30 54% 50 km
Fr, 19.08. 19:20 54% -
Fr, 19.08. 19:10 54% -
Fr, 19.08. 19:00 51% 50 km
Fr, 19.08. 18:30 48% 45 km
Fr, 19.08. 18:00 49% 45 km
Fr, 19.08. 17:30 50% 35 km
Fr, 19.08. 17:00 47% 45 km
Ortszeit Niederschlagsmenge Niederschlagsart
Fr, 19.08. 20:00 0.0 l/m2 in 12 Std. -
Fr, 19.08. 14:00 0.0 l/m2 in 6 Std. -
Fr, 19.08. 8:00 0.0 l/m2 in 12 Std. -
Fr, 19.08. 2:00 0.0 l/m2 in 6 Std. -
Do, 18.08. 20:00 0.1 l/m2 in 12 Std. Regen
Do, 18.08. 14:00 0.1 l/m2 in 6 Std. Regen
Do, 18.08. 8:00 0.0 l/m2 in 12 Std. -
Do, 18.08. 2:00 0.0 l/m2 in 6 Std. -
Ortszeit Niederschlagsmenge Niederschlagsart
Fr, 19.08. 20:00 0.0 l/m2 in 1 Std. -
Fr, 19.08. 19:50 keine Meldung -
Fr, 19.08. 19:40 keine Meldung -
Fr, 19.08. 19:30 0.0 l/m2 in 1 Std. -
Fr, 19.08. 19:20 keine Meldung -
Fr, 19.08. 19:10 keine Meldung -
Fr, 19.08. 19:00 0.0 l/m2 in 1 Std. -
Fr, 19.08. 18:30 0.0 l/m2 in 1 Std. -
Fr, 19.08. 18:00 0.0 l/m2 in 1 Std. -
Fr, 19.08. 17:30 0.0 l/m2 in 1 Std. -
Fr, 19.08. 17:00 0.0 l/m2 in 1 Std. -
Ortszeit Stärke Spitze Richtung
km/h Bft. km/h Grad Sektor
Fr, 19.08. 20:00 9 2 33 300° NW
Fr, 19.08. 14:00 14 3 36 290° W
Fr, 19.08. 8:00 11 2 18 310° NW
Fr, 19.08. 2:00 4 1 22 20° N
Do, 18.08. 20:00 11 2 29 320° NW
Do, 18.08. 14:00 9 2 22 340° N
Do, 18.08. 8:00 11 2 22 330° NW
Do, 18.08. 2:00 13 3 22 340° N
Ortszeit Stärke Spitze Richtung
km/h Bft. km/h Grad Sektor
Fr, 19.08. 20:00 9 2 28 300° NW
Fr, 19.08. 19:50 9 2 - 300° NW
Fr, 19.08. 19:40 9 2 - 290° W
Fr, 19.08. 19:30 9 2 28 290° W
Fr, 19.08. 19:20 9 2 - 290° W
Fr, 19.08. 19:10 11 2 - 300° NW
Fr, 19.08. 19:00 13 3 30 300° NW
Fr, 19.08. 18:30 13 3 30 280° W
Fr, 19.08. 18:00 7 2 26 280° W
Fr, 19.08. 17:30 11 2 26 270° W
Fr, 19.08. 17:00 11 2 29 260° W
Ortszeit Untergrenze Bedeckung Gattung
total tief tief mittel hoch
Fr, 19.08. 20:00 9000 m 8/8 0/8 - - -
Fr, 19.08. 14:00 1140 m 8/8 1/8 - - -
Fr, 19.08. 8:00 7200 m 8/8 0/8 - - -
Fr, 19.08. 2:00 3000 m 8/8 5/8 - - -
Do, 18.08. 20:00 870 m 8/8 1/8 - - -
Do, 18.08. 14:00 3300 m 8/8 8/8 - - -
Do, 18.08. 8:00 3600 m 8/8 8/8 - - -
Do, 18.08. 2:00 6300 m 8/8 4/8 - - -
Ortszeit Bedeckungsgrad in Achtel und Wolkenuntergrenze
Fr, 19.08. 20:00 8(9000m)
Fr, 19.08. 19:50 8(9000m)
Fr, 19.08. 19:40 8
Fr, 19.08. 19:30 8(9000m)
Fr, 19.08. 19:20 8(9000m)
Fr, 19.08. 19:10 7
Fr, 19.08. 19:00 5(9000m)
Fr, 19.08. 18:30 1(1500m) 7(9000m)
Fr, 19.08. 18:00 1(1380m)
Fr, 19.08. 17:30 2(1410m) 3(1500m) 5(10500m)
Fr, 19.08. 17:00 7(10500m) 8(10500m)
Ortszeit Luftdruck NN (hPa) Tendenz (hPa in 3 Std.)
Fr, 19.08. 20:00 1013 + 0,3
Fr, 19.08. 14:00 1013 - 0,4
Fr, 19.08. 8:00 1013 + 0,5
Fr, 19.08. 2:00 1013 + 0,4
Do, 18.08. 20:00 1012 - 0,5
Do, 18.08. 14:00 1013 - 0,8
Do, 18.08. 8:00 1013 + 0,1
Do, 18.08. 2:00 1013 + 0,4
Ortszeit Luftdruck NN (hPa) Tendenz (hPa in 3 Std.)
Fr, 19.08. 20:00 1013 + 0,3
Fr, 19.08. 19:50 1013 keine Meldung
Fr, 19.08. 19:40 1013 keine Meldung
Fr, 19.08. 19:30 1013 + 0,3
Fr, 19.08. 19:20 1013 keine Meldung
Fr, 19.08. 19:10 1013 keine Meldung
Fr, 19.08. 19:00 1013 0,0
Fr, 19.08. 18:30 1012 + 0,4
Fr, 19.08. 18:00 1013 + 0,5
Fr, 19.08. 17:30 1013 + 0,3
Fr, 19.08. 17:00 1012 - 0,1
Ortszeit Schneehöhe (cm)
Fr, 19.08. 20:00 0
Fr, 19.08. 14:00 0
Fr, 19.08. 8:00 0
Fr, 19.08. 2:00 0
Do, 18.08. 20:00 0
Do, 18.08. 14:00 0
Do, 18.08. 8:00 0
Do, 18.08. 2:00 0
Ortszeit Schneehöhe (cm)
Fr, 19.08. 20:00 0
Fr, 19.08. 19:50 0
Fr, 19.08. 19:40 0
Fr, 19.08. 19:30 0
Fr, 19.08. 19:20 0
Fr, 19.08. 19:10 0
Fr, 19.08. 19:00 0
Fr, 19.08. 18:30 0
Fr, 19.08. 18:00 0
Fr, 19.08. 17:30 0
Fr, 19.08. 17:00 0
Link zu dieser Seite / Seite empfehlen

Das Wetter in ...